Terminal Aerodrome Forecast
Issued by NWS

Home | Current Version | Previous Version | Text Only | Print | Product List | Glossary On
Versions: 1 2 3 4 5 6 7 8 9 10 11 12 13 14 15 16 17 18 19 20 21 22 23 24 25 26 27
000
FTUS45 KPSR 010500
TAFPHX
TAF
KPHX 010522Z 0106/0206 18005KT P6SM VCSH FEW040 BKN060 OVC100
      TEMPO 0108/0111 -SHRA
     FM011100 14006KT P6SM VCSH SCT040 BKN050 OVC080
      TEMPO 0111/0115 -SHRA BKN040 OVC060
     FM011500 17012KT P6SM VCSH FEW035 BKN040 BKN080
     FM012200 19010G20KT P6SM FEW040 BKN060=

USA.gov is the U.S. government's official web portal to all federal, state and local government web resources and services.